sensor_id;sensor_type;location;lat;lon;timestamp;P1;durP1;ratioP1;P2;durP2;ratioP2
56005;SDS011;41888;44.696;10.522;2022-07-10T00:00:42;6.10;;;2.28;;
56005;SDS011;41888;44.696;10.522;2022-07-10T00:03:09;6.35;;;2.05;;
56005;SDS011;41888;44.696;10.522;2022-07-10T00:05:35;4.88;;;1.83;;
56005;SDS011;41888;44.696;10.522;2022-07-10T00:08:01;2.95;;;1.60;;
56005;SDS011;41888;44.696;10.522;2022-07-10T00:10:28;3.70;;;1.75;;
56005;SDS011;41888;44.696;10.522;2022-07-10T00:12:55;6.53;;;2.05;;
56005;SDS011;41888;44.696;10.522;2022-07-10T00:15:22;5.88;;;2.10;;
56005;SDS011;41888;44.696;10.522;2022-07-10T00:17:48;2.85;;;1.70;;
56005;SDS011;41888;44.696;10.522;2022-07-10T00:20:15;4.30;;;1.55;;
56005;SDS011;41888;44.696;10.522;2022-07-10T00:22:42;2.42;;;1.55;;
56005;SDS011;41888;44.696;10.522;2022-07-10T00:25:12;4.20;;;1.30;;
56005;SDS011;41888;44.696;10.522;2022-07-10T00:27:39;3.60;;;1.60;;
56005;SDS011;41888;44.696;10.522;2022-07-10T00:30:07;2.83;;;1.80;;
56005;SDS011;41888;44.696;10.522;2022-07-10T00:32:34;3.92;;;1.52;;
56005;SDS011;41888;44.696;10.522;2022-07-10T00:35:01;3.50;;;1.38;;
56005;SDS011;41888;44.696;10.522;2022-07-10T00:37:28;4.32;;;1.58;;
56005;SDS011;41888;44.696;10.522;2022-07-10T00:39:54;3.70;;;1.38;;
56005;SDS011;41888;44.696;10.522;2022-07-10T00:42:20;2.30;;;1.45;;
56005;SDS011;41888;44.696;10.522;2022-07-10T00:44:47;3.95;;;1.30;;
56005;SDS011;41888;44.696;10.522;2022-07-10T00:47:13;6.28;;;1.27;;
56005;SDS011;41888;44.696;10.522;2022-07-10T00:49:42;2.55;;;1.45;;
56005;SDS011;41888;44.696;10.522;2022-07-10T00:52:12;3.45;;;1.60;;
56005;SDS011;41888;44.696;10.522;2022-07-10T00:54:44;3.47;;;1.65;;
56005;SDS011;41888;44.696;10.522;2022-07-10T00:57:13;5.97;;;1.65;;
56005;SDS011;41888;44.696;10.522;2022-07-10T00:59:40;2.33;;;1.33;;
56005;SDS011;41888;44.696;10.522;2022-07-10T01:02:06;4.00;;;1.40;;
56005;SDS011;41888;44.696;10.522;2022-07-10T01:04:34;2.22;;;1.20;;
56005;SDS011;41888;44.696;10.522;2022-07-10T01:07:00;3.70;;;1.50;;
56005;SDS011;41888;44.696;10.522;2022-07-10T01:09:27;2.72;;;1.50;;
56005;SDS011;41888;44.696;10.522;2022-07-10T01:11:54;4.22;;;1.80;;
56005;SDS011;41888;44.696;10.522;2022-07-10T01:14:24;3.22;;;1.40;;
56005;SDS011;41888;44.696;10.522;2022-07-10T01:16:52;3.80;;;2.10;;
56005;SDS011;41888;44.696;10.522;2022-07-10T01:19:18;3.70;;;2.00;;
56005;SDS011;41888;44.696;10.522;2022-07-10T01:21:45;5.25;;;1.92;;
56005;SDS011;41888;44.696;10.522;2022-07-10T01:24:11;4.82;;;2.15;;
56005;SDS011;41888;44.696;10.522;2022-07-10T01:26:37;2.60;;;1.85;;
56005;SDS011;41888;44.696;10.522;2022-07-10T01:29:08;4.68;;;2.55;;
56005;SDS011;41888;44.696;10.522;2022-07-10T01:31:36;4.03;;;1.88;;
56005;SDS011;41888;44.696;10.522;2022-07-10T01:34:04;6.68;;;2.30;;
56005;SDS011;41888;44.696;10.522;2022-07-10T01:36:32;3.45;;;1.80;;
56005;SDS011;41888;44.696;10.522;2022-07-10T01:38:59;6.18;;;1.88;;
56005;SDS011;41888;44.696;10.522;2022-07-10T01:41:25;5.90;;;1.80;;
56005;SDS011;41888;44.696;10.522;2022-07-10T01:43:52;6.20;;;2.58;;
56005;SDS011;41888;44.696;10.522;2022-07-10T01:46:19;4.72;;;1.83;;
56005;SDS011;41888;44.696;10.522;2022-07-10T01:48:46;3.17;;;1.90;;
56005;SDS011;41888;44.696;10.522;2022-07-10T01:51:13;2.90;;;1.83;;
56005;SDS011;41888;44.696;10.522;2022-07-10T01:53:39;9.95;;;2.20;;
56005;SDS011;41888;44.696;10.522;2022-07-10T01:56:06;2.80;;;1.80;;
56005;SDS011;41888;44.696;10.522;2022-07-10T01:58:34;5.85;;;2.10;;
56005;SDS011;41888;44.696;10.522;2022-07-10T02:01:02;5.22;;;2.35;;
56005;SDS011;41888;44.696;10.522;2022-07-10T02:03:28;7.40;;;2.08;;
56005;SDS011;41888;44.696;10.522;2022-07-10T02:06:13;3.38;;;2.03;;
56005;SDS011;41888;44.696;10.522;2022-07-10T02:08:40;5.35;;;1.98;;
56005;SDS011;41888;44.696;10.522;2022-07-10T02:11:06;6.72;;;2.38;;
56005;SDS011;41888;44.696;10.522;2022-07-10T02:13:32;4.53;;;2.38;;
56005;SDS011;41888;44.696;10.522;2022-07-10T02:15:58;5.07;;;2.67;;
56005;SDS011;41888;44.696;10.522;2022-07-10T02:18:25;5.13;;;2.42;;
56005;SDS011;41888;44.696;10.522;2022-07-10T02:20:51;5.18;;;2.70;;
56005;SDS011;41888;44.696;10.522;2022-07-10T02:23:18;5.55;;;2.88;;
56005;SDS011;41888;44.696;10.522;2022-07-10T02:25:44;3.15;;;2.50;;
56005;SDS011;41888;44.696;10.522;2022-07-10T02:28:10;8.73;;;3.00;;
56005;SDS011;41888;44.696;10.522;2022-07-10T02:30:36;3.15;;;2.70;;
56005;SDS011;41888;44.696;10.522;2022-07-10T02:33:03;4.85;;;2.50;;
56005;SDS011;41888;44.696;10.522;2022-07-10T02:35:29;5.53;;;2.80;;
56005;SDS011;41888;44.696;10.522;2022-07-10T02:37:55;4.78;;;2.67;;
56005;SDS011;41888;44.696;10.522;2022-07-10T02:40:21;4.97;;;2.33;;
56005;SDS011;41888;44.696;10.522;2022-07-10T02:42:48;6.20;;;2.35;;
56005;SDS011;41888;44.696;10.522;2022-07-10T02:45:14;6.50;;;2.50;;
56005;SDS011;41888;44.696;10.522;2022-07-10T02:47:40;3.35;;;2.22;;
56005;SDS011;41888;44.696;10.522;2022-07-10T02:50:06;4.75;;;2.50;;
56005;SDS011;41888;44.696;10.522;2022-07-10T02:52:33;4.47;;;2.63;;
56005;SDS011;41888;44.696;10.522;2022-07-10T02:54:59;3.40;;;2.10;;
56005;SDS011;41888;44.696;10.522;2022-07-10T02:57:25;4.13;;;2.65;;
56005;SDS011;41888;44.696;10.522;2022-07-10T02:59:53;5.50;;;2.50;;
56005;SDS011;41888;44.696;10.522;2022-07-10T03:02:19;3.55;;;2.58;;
56005;SDS011;41888;44.696;10.522;2022-07-10T03:04:45;3.28;;;2.50;;
56005;SDS011;41888;44.696;10.522;2022-07-10T03:07:11;6.47;;;2.40;;
56005;SDS011;41888;44.696;10.522;2022-07-10T03:09:37;3.10;;;2.20;;
56005;SDS011;41888;44.696;10.522;2022-07-10T03:12:04;4.00;;;2.35;;
56005;SDS011;41888;44.696;10.522;2022-07-10T03:14:31;5.40;;;2.65;;
56005;SDS011;41888;44.696;10.522;2022-07-10T03:16:57;4.10;;;2.33;;
56005;SDS011;41888;44.696;10.522;2022-07-10T03:19:23;5.53;;;2.92;;
56005;SDS011;41888;44.696;10.522;2022-07-10T03:21:49;3.78;;;2.42;;
56005;SDS011;41888;44.696;10.522;2022-07-10T03:24:16;6.30;;;2.15;;
56005;SDS011;41888;44.696;10.522;2022-07-10T03:26:42;3.80;;;2.42;;
56005;SDS011;41888;44.696;10.522;2022-07-10T03:29:09;4.75;;;2.30;;
56005;SDS011;41888;44.696;10.522;2022-07-10T03:31:36;4.82;;;2.42;;
56005;SDS011;41888;44.696;10.522;2022-07-10T03:34:02;6.30;;;2.50;;
56005;SDS011;41888;44.696;10.522;2022-07-10T03:36:28;5.72;;;2.63;;
56005;SDS011;41888;44.696;10.522;2022-07-10T03:38:54;6.65;;;2.25;;
56005;SDS011;41888;44.696;10.522;2022-07-10T03:41:23;4.63;;;2.90;;
56005;SDS011;41888;44.696;10.522;2022-07-10T03:43:49;3.38;;;2.33;;
56005;SDS011;41888;44.696;10.522;2022-07-10T03:46:16;3.90;;;2.85;;
56005;SDS011;41888;44.696;10.522;2022-07-10T03:48:42;3.88;;;2.40;;
56005;SDS011;41888;44.696;10.522;2022-07-10T03:51:08;7.13;;;2.42;;
56005;SDS011;41888;44.696;10.522;2022-07-10T03:53:34;6.38;;;2.75;;
56005;SDS011;41888;44.696;10.522;2022-07-10T03:56:01;7.50;;;2.55;;
56005;SDS011;41888;44.696;10.522;2022-07-10T03:58:28;4.10;;;2.67;;
56005;SDS011;41888;44.696;10.522;2022-07-10T04:00:54;3.50;;;2.20;;
56005;SDS011;41888;44.696;10.522;2022-07-10T04:03:20;5.68;;;2.75;;
56005;SDS011;41888;44.696;10.522;2022-07-10T04:05:47;4.13;;;2.80;;
56005;SDS011;41888;44.696;10.522;2022-07-10T04:08:13;4.93;;;2.97;;
56005;SDS011;41888;44.696;10.522;2022-07-10T04:10:39;7.03;;;2.38;;
56005;SDS011;41888;44.696;10.522;2022-07-10T04:13:05;3.33;;;2.28;;
56005;SDS011;41888;44.696;10.522;2022-07-10T04:15:31;4.47;;;2.53;;
56005;SDS011;41888;44.696;10.522;2022-07-10T04:17:58;5.30;;;2.88;;
56005;SDS011;41888;44.696;10.522;2022-07-10T04:20:24;3.33;;;2.15;;
56005;SDS011;41888;44.696;10.522;2022-07-10T04:22:50;5.57;;;2.20;;
56005;SDS011;41888;44.696;10.522;2022-07-10T04:25:16;4.22;;;2.20;;
56005;SDS011;41888;44.696;10.522;2022-07-10T04:27:42;3.53;;;2.70;;
56005;SDS011;41888;44.696;10.522;2022-07-10T04:30:09;5.97;;;2.53;;
56005;SDS011;41888;44.696;10.522;2022-07-10T04:32:35;3.30;;;2.33;;
56005;SDS011;41888;44.696;10.522;2022-07-10T04:35:02;6.07;;;3.30;;
56005;SDS011;41888;44.696;10.522;2022-07-10T04:37:28;7.63;;;2.38;;
56005;SDS011;41888;44.696;10.522;2022-07-10T04:39:54;4.93;;;2.63;;
56005;SDS011;41888;44.696;10.522;2022-07-10T04:42:21;5.68;;;2.17;;
56005;SDS011;41888;44.696;10.522;2022-07-10T04:44:47;6.93;;;1.95;;
56005;SDS011;41888;44.696;10.522;2022-07-10T04:47:13;5.22;;;2.30;;
56005;SDS011;41888;44.696;10.522;2022-07-10T04:49:39;4.88;;;2.50;;
56005;SDS011;41888;44.696;10.522;2022-07-10T04:52:05;5.47;;;2.25;;
56005;SDS011;41888;44.696;10.522;2022-07-10T04:54:32;5.18;;;2.80;;
56005;SDS011;41888;44.696;10.522;2022-07-10T04:56:58;3.50;;;2.20;;
56005;SDS011;41888;44.696;10.522;2022-07-10T04:59:25;4.80;;;1.95;;
56005;SDS011;41888;44.696;10.522;2022-07-10T05:01:51;4.22;;;2.40;;
56005;SDS011;41888;44.696;10.522;2022-07-10T05:04:18;4.32;;;2.22;;
56005;SDS011;41888;44.696;10.522;2022-07-10T05:06:44;7.53;;;2.10;;
56005;SDS011;41888;44.696;10.522;2022-07-10T05:09:10;6.97;;;2.15;;
56005;SDS011;41888;44.696;10.522;2022-07-10T05:11:36;3.85;;;2.03;;
56005;SDS011;41888;44.696;10.522;2022-07-10T05:14:02;5.10;;;1.75;;
56005;SDS011;41888;44.696;10.522;2022-07-10T05:16:28;5.65;;;2.40;;
56005;SDS011;41888;44.696;10.522;2022-07-10T05:18:55;4.53;;;1.42;;
56005;SDS011;41888;44.696;10.522;2022-07-10T05:21:21;5.93;;;1.70;;
56005;SDS011;41888;44.696;10.522;2022-07-10T05:23:47;4.70;;;1.65;;
56005;SDS011;41888;44.696;10.522;2022-07-10T05:26:13;5.80;;;1.45;;
56005;SDS011;41888;44.696;10.522;2022-07-10T05:28:39;7.85;;;1.70;;
56005;SDS011;41888;44.696;10.522;2022-07-10T05:31:05;3.10;;;1.60;;
56005;SDS011;41888;44.696;10.522;2022-07-10T05:33:32;2.95;;;1.45;;
56005;SDS011;41888;44.696;10.522;2022-07-10T05:35:59;4.53;;;1.85;;
56005;SDS011;41888;44.696;10.522;2022-07-10T05:38:25;2.75;;;1.35;;
56005;SDS011;41888;44.696;10.522;2022-07-10T05:40:51;2.42;;;1.40;;
56005;SDS011;41888;44.696;10.522;2022-07-10T05:43:19;2.28;;;1.20;;
56005;SDS011;41888;44.696;10.522;2022-07-10T05:45:45;2.95;;;1.30;;
56005;SDS011;41888;44.696;10.522;2022-07-10T05:48:12;2.67;;;1.10;;
56005;SDS011;41888;44.696;10.522;2022-07-10T05:50:38;5.30;;;1.13;;
56005;SDS011;41888;44.696;10.522;2022-07-10T05:53:04;3.95;;;1.10;;
56005;SDS011;41888;44.696;10.522;2022-07-10T05:55:30;4.20;;;0.98;;
56005;SDS011;41888;44.696;10.522;2022-07-10T05:57:57;8.20;;;1.50;;
56005;SDS011;41888;44.696;10.522;2022-07-10T06:00:24;2.97;;;1.30;;
56005;SDS011;41888;44.696;10.522;2022-07-10T06:02:50;3.28;;;1.00;;
56005;SDS011;41888;44.696;10.522;2022-07-10T06:05:17;2.80;;;1.00;;
56005;SDS011;41888;44.696;10.522;2022-07-10T06:07:43;2.00;;;1.10;;
56005;SDS011;41888;44.696;10.522;2022-07-10T06:10:09;2.40;;;1.20;;
56005;SDS011;41888;44.696;10.522;2022-07-10T06:12:36;2.47;;;1.00;;
56005;SDS011;41888;44.696;10.522;2022-07-10T06:15:02;1.98;;;1.17;;
56005;SDS011;41888;44.696;10.522;2022-07-10T06:17:29;2.58;;;1.13;;
56005;SDS011;41888;44.696;10.522;2022-07-10T06:19:55;2.15;;;1.23;;
56005;SDS011;41888;44.696;10.522;2022-07-10T06:22:22;3.03;;;1.20;;
56005;SDS011;41888;44.696;10.522;2022-07-10T06:24:57;2.17;;;1.23;;
56005;SDS011;41888;44.696;10.522;2022-07-10T06:27:24;2.97;;;1.15;;
56005;SDS011;41888;44.696;10.522;2022-07-10T06:29:50;3.30;;;1.15;;
56005;SDS011;41888;44.696;10.522;2022-07-10T06:32:17;3.00;;;1.30;;
56005;SDS011;41888;44.696;10.522;2022-07-10T06:34:43;3.50;;;0.95;;
56005;SDS011;41888;44.696;10.522;2022-07-10T06:37:09;2.10;;;1.10;;
56005;SDS011;41888;44.696;10.522;2022-07-10T06:39:35;5.47;;;1.45;;
56005;SDS011;41888;44.696;10.522;2022-07-10T06:42:05;2.97;;;1.33;;
56005;SDS011;41888;44.696;10.522;2022-07-10T06:44:32;2.13;;;1.02;;
56005;SDS011;41888;44.696;10.522;2022-07-10T06:46:58;8.43;;;1.33;;
56005;SDS011;41888;44.696;10.522;2022-07-10T06:49:51;4.18;;;1.40;;
56005;SDS011;41888;44.696;10.522;2022-07-10T06:52:18;2.75;;;1.17;;
56005;SDS011;41888;44.696;10.522;2022-07-10T06:54:44;3.53;;;1.30;;
56005;SDS011;41888;44.696;10.522;2022-07-10T06:57:11;3.83;;;1.40;;
56005;SDS011;41888;44.696;10.522;2022-07-10T06:59:37;2.55;;;0.93;;
56005;SDS011;41888;44.696;10.522;2022-07-10T07:02:04;2.38;;;1.30;;
56005;SDS011;41888;44.696;10.522;2022-07-10T07:04:30;2.65;;;1.10;;
56005;SDS011;41888;44.696;10.522;2022-07-10T07:06:57;3.70;;;1.38;;
56005;SDS011;41888;44.696;10.522;2022-07-10T07:09:23;2.83;;;1.65;;
56005;SDS011;41888;44.696;10.522;2022-07-10T07:11:49;3.50;;;1.20;;
56005;SDS011;41888;44.696;10.522;2022-07-10T07:14:15;4.35;;;1.20;;
56005;SDS011;41888;44.696;10.522;2022-07-10T07:16:41;4.97;;;1.60;;
56005;SDS011;41888;44.696;10.522;2022-07-10T07:19:10;2.65;;;1.45;;
56005;SDS011;41888;44.696;10.522;2022-07-10T07:21:42;3.97;;;1.40;;
56005;SDS011;41888;44.696;10.522;2022-07-10T07:24:29;4.43;;;1.73;;
56005;SDS011;41888;44.696;10.522;2022-07-10T07:26:55;3.03;;;1.85;;
56005;SDS011;41888;44.696;10.522;2022-07-10T07:29:22;4.97;;;2.00;;
56005;SDS011;41888;44.696;10.522;2022-07-10T07:31:48;4.57;;;1.70;;
56005;SDS011;41888;44.696;10.522;2022-07-10T07:34:14;3.13;;;1.50;;
56005;SDS011;41888;44.696;10.522;2022-07-10T07:36:40;2.78;;;1.55;;
56005;SDS011;41888;44.696;10.522;2022-07-10T07:39:06;2.95;;;1.65;;
56005;SDS011;41888;44.696;10.522;2022-07-10T07:41:32;5.43;;;1.70;;
56005;SDS011;41888;44.696;10.522;2022-07-10T07:43:59;4.05;;;1.80;;
56005;SDS011;41888;44.696;10.522;2022-07-10T07:46:25;2.70;;;1.58;;
56005;SDS011;41888;44.696;10.522;2022-07-10T07:48:51;3.78;;;1.80;;
56005;SDS011;41888;44.696;10.522;2022-07-10T07:51:17;4.35;;;1.60;;
56005;SDS011;41888;44.696;10.522;2022-07-10T07:53:43;4.03;;;1.50;;
56005;SDS011;41888;44.696;10.522;2022-07-10T07:56:10;2.45;;;1.48;;
56005;SDS011;41888;44.696;10.522;2022-07-10T07:58:36;3.55;;;1.45;;
56005;SDS011;41888;44.696;10.522;2022-07-10T08:01:02;3.63;;;1.10;;
56005;SDS011;41888;44.696;10.522;2022-07-10T08:03:28;4.38;;;1.85;;
56005;SDS011;41888;44.696;10.522;2022-07-10T08:05:54;6.20;;;1.20;;
56005;SDS011;41888;44.696;10.522;2022-07-10T08:08:21;1.50;;;1.10;;
56005;SDS011;41888;44.696;10.522;2022-07-10T08:10:47;2.03;;;1.10;;
56005;SDS011;41888;44.696;10.522;2022-07-10T08:13:13;3.92;;;1.02;;
56005;SDS011;41888;44.696;10.522;2022-07-10T08:15:39;2.47;;;1.20;;
56005;SDS011;41888;44.696;10.522;2022-07-10T08:18:05;2.05;;;1.05;;
56005;SDS011;41888;44.696;10.522;2022-07-10T08:20:32;3.28;;;1.10;;
56005;SDS011;41888;44.696;10.522;2022-07-10T08:22:58;1.77;;;1.20;;
56005;SDS011;41888;44.696;10.522;2022-07-10T08:25:25;4.65;;;1.27;;
56005;SDS011;41888;44.696;10.522;2022-07-10T08:27:52;4.20;;;1.00;;
56005;SDS011;41888;44.696;10.522;2022-07-10T08:30:18;6.13;;;1.63;;
56005;SDS011;41888;44.696;10.522;2022-07-10T08:32:45;2.10;;;1.10;;
56005;SDS011;41888;44.696;10.522;2022-07-10T08:35:11;2.80;;;1.02;;
56005;SDS011;41888;44.696;10.522;2022-07-10T08:37:42;3.90;;;1.63;;
56005;SDS011;41888;44.696;10.522;2022-07-10T08:40:10;2.20;;;1.30;;
56005;SDS011;41888;44.696;10.522;2022-07-10T08:42:38;3.33;;;1.00;;
56005;SDS011;41888;44.696;10.522;2022-07-10T08:45:09;3.53;;;1.10;;
56005;SDS011;41888;44.696;10.522;2022-07-10T08:47:36;2.15;;;1.10;;
56005;SDS011;41888;44.696;10.522;2022-07-10T08:50:11;4.05;;;1.58;;
56005;SDS011;41888;44.696;10.522;2022-07-10T08:52:43;2.63;;;1.42;;
56005;SDS011;41888;44.696;10.522;2022-07-10T08:55:20;4.07;;;1.30;;
56005;SDS011;41888;44.696;10.522;2022-07-10T08:57:51;3.47;;;1.20;;
56005;SDS011;41888;44.696;10.522;2022-07-10T09:00:18;3.28;;;1.30;;
56005;SDS011;41888;44.696;10.522;2022-07-10T09:02:45;1.63;;;1.20;;
56005;SDS011;41888;44.696;10.522;2022-07-10T09:05:11;6.25;;;1.63;;
56005;SDS011;41888;44.696;10.522;2022-07-10T09:07:37;7.00;;;1.48;;
56005;SDS011;41888;44.696;10.522;2022-07-10T09:10:07;3.20;;;1.65;;
56005;SDS011;41888;44.696;10.522;2022-07-10T09:15:18;8.18;;;1.45;;
56005;SDS011;41888;44.696;10.522;2022-07-10T09:17:51;6.47;;;1.30;;
56005;SDS011;41888;44.696;10.522;2022-07-10T09:20:29;2.90;;;1.30;;
56005;SDS011;41888;44.696;10.522;2022-07-10T09:23:08;3.17;;;1.20;;
56005;SDS011;41888;44.696;10.522;2022-07-10T09:25:42;3.80;;;1.10;;
56005;SDS011;41888;44.696;10.522;2022-07-10T09:28:09;5.78;;;1.83;;
56005;SDS011;41888;44.696;10.522;2022-07-10T09:30:37;2.10;;;0.95;;
56005;SDS011;41888;44.696;10.522;2022-07-10T09:33:17;3.95;;;1.50;;
56005;SDS011;41888;44.696;10.522;2022-07-10T09:43:50;2.42;;;1.40;;
56005;SDS011;41888;44.696;10.522;2022-07-10T09:46:22;2.25;;;1.27;;
56005;SDS011;41888;44.696;10.522;2022-07-10T09:51:31;1.70;;;1.08;;
56005;SDS011;41888;44.696;10.522;2022-07-10T09:54:00;9.23;;;1.35;;
56005;SDS011;41888;44.696;10.522;2022-07-10T09:56:30;3.42;;;1.80;;
56005;SDS011;41888;44.696;10.522;2022-07-10T09:59:05;2.15;;;1.20;;
56005;SDS011;41888;44.696;10.522;2022-07-10T10:01:43;7.32;;;3.25;;
56005;SDS011;41888;44.696;10.522;2022-07-10T10:04:10;2.92;;;1.30;;
56005;SDS011;41888;44.696;10.522;2022-07-10T10:06:38;3.03;;;1.15;;
56005;SDS011;41888;44.696;10.522;2022-07-10T10:09:07;3.90;;;1.40;;
56005;SDS011;41888;44.696;10.522;2022-07-10T10:11:46;4.95;;;1.20;;
56005;SDS011;41888;44.696;10.522;2022-07-10T10:14:15;5.47;;;1.13;;
56005;SDS011;41888;44.696;10.522;2022-07-10T10:16:44;5.10;;;1.27;;
56005;SDS011;41888;44.696;10.522;2022-07-10T10:19:11;8.85;;;1.58;;
56005;SDS011;41888;44.696;10.522;2022-07-10T10:21:57;2.33;;;1.20;;
56005;SDS011;41888;44.696;10.522;2022-07-10T10:24:24;1.95;;;0.90;;
56005;SDS011;41888;44.696;10.522;2022-07-10T10:26:52;11.13;;;1.67;;
56005;SDS011;41888;44.696;10.522;2022-07-10T10:29:19;3.92;;;1.17;;
56005;SDS011;41888;44.696;10.522;2022-07-10T10:31:45;2.03;;;1.20;;
56005;SDS011;41888;44.696;10.522;2022-07-10T10:34:12;7.28;;;1.65;;
56005;SDS011;41888;44.696;10.522;2022-07-10T10:39:12;2.90;;;1.15;;
56005;SDS011;41888;44.696;10.522;2022-07-10T10:49:22;2.90;;;1.10;;
56005;SDS011;41888;44.696;10.522;2022-07-10T10:51:56;1.80;;;1.00;;
56005;SDS011;41888;44.696;10.522;2022-07-10T10:54:23;2.83;;;1.00;;
56005;SDS011;41888;44.696;10.522;2022-07-10T10:59:49;3.03;;;1.08;;
56005;SDS011;41888;44.696;10.522;2022-07-10T11:02:26;2.40;;;1.20;;
56005;SDS011;41888;44.696;10.522;2022-07-10T11:10:34;2.63;;;1.02;;
56005;SDS011;41888;44.696;10.522;2022-07-10T11:13:07;3.10;;;1.02;;
56005;SDS011;41888;44.696;10.522;2022-07-10T11:15:39;1.50;;;0.98;;
56005;SDS011;41888;44.696;10.522;2022-07-10T11:18:10;2.60;;;1.00;;
56005;SDS011;41888;44.696;10.522;2022-07-10T11:20:39;3.17;;;0.98;;
56005;SDS011;41888;44.696;10.522;2022-07-10T11:23:17;1.67;;;0.90;;
56005;SDS011;41888;44.696;10.522;2022-07-10T11:26:08;2.88;;;1.30;;
56005;SDS011;41888;44.696;10.522;2022-07-10T11:31:08;3.92;;;1.17;;
56005;SDS011;41888;44.696;10.522;2022-07-10T11:33:44;2.80;;;0.85;;
56005;SDS011;41888;44.696;10.522;2022-07-10T11:36:19;3.30;;;1.02;;
56005;SDS011;41888;44.696;10.522;2022-07-10T11:38:55;3.75;;;1.00;;
56005;SDS011;41888;44.696;10.522;2022-07-10T11:41:29;4.30;;;1.35;;
56005;SDS011;41888;44.696;10.522;2022-07-10T11:44:02;2.83;;;1.00;;
56005;SDS011;41888;44.696;10.522;2022-07-10T11:46:30;2.58;;;1.00;;
56005;SDS011;41888;44.696;10.522;2022-07-10T11:48:58;1.60;;;0.90;;
56005;SDS011;41888;44.696;10.522;2022-07-10T11:51:32;2.60;;;1.02;;
56005;SDS011;41888;44.696;10.522;2022-07-10T11:56:42;1.77;;;0.80;;
56005;SDS011;41888;44.696;10.522;2022-07-10T11:59:13;2.33;;;0.88;;
56005;SDS011;41888;44.696;10.522;2022-07-10T12:01:41;3.10;;;0.90;;
56005;SDS011;41888;44.696;10.522;2022-07-10T12:04:07;10.07;;;1.02;;
56005;SDS011;41888;44.696;10.522;2022-07-10T12:06:35;2.17;;;0.70;;
56005;SDS011;41888;44.696;10.522;2022-07-10T12:09:04;4.00;;;1.00;;
56005;SDS011;41888;44.696;10.522;2022-07-10T12:11:31;3.05;;;1.00;;
56005;SDS011;41888;44.696;10.522;2022-07-10T12:14:14;5.18;;;1.13;;
56005;SDS011;41888;44.696;10.522;2022-07-10T12:16:48;2.13;;;0.82;;
56005;SDS011;41888;44.696;10.522;2022-07-10T12:19:17;1.63;;;0.90;;
56005;SDS011;41888;44.696;10.522;2022-07-10T12:22:01;2.53;;;0.85;;
56005;SDS011;41888;44.696;10.522;2022-07-10T12:24:29;2.70;;;1.02;;
56005;SDS011;41888;44.696;10.522;2022-07-10T12:26:55;2.78;;;1.35;;
56005;SDS011;41888;44.696;10.522;2022-07-10T12:29:29;2.92;;;0.70;;
56005;SDS011;41888;44.696;10.522;2022-07-10T12:31:56;1.20;;;0.80;;
56005;SDS011;41888;44.696;10.522;2022-07-10T12:34:33;2.28;;;0.70;;
56005;SDS011;41888;44.696;10.522;2022-07-10T12:37:08;1.60;;;0.80;;
56005;SDS011;41888;44.696;10.522;2022-07-10T12:39:57;2.08;;;1.30;;
56005;SDS011;41888;44.696;10.522;2022-07-10T12:42:25;2.58;;;1.02;;
56005;SDS011;41888;44.696;10.522;2022-07-10T12:44:53;1.48;;;0.80;;
56005;SDS011;41888;44.696;10.522;2022-07-10T12:47:20;2.03;;;1.10;;
56005;SDS011;41888;44.696;10.522;2022-07-10T12:52:34;2.53;;;0.77;;
56005;SDS011;41888;44.696;10.522;2022-07-10T13:00:13;1.20;;;0.73;;
56005;SDS011;41888;44.696;10.522;2022-07-10T13:02:40;1.10;;;0.65;;
56005;SDS011;41888;44.696;10.522;2022-07-10T13:05:07;2.40;;;0.70;;
56005;SDS011;41888;44.696;10.522;2022-07-10T13:07:34;1.55;;;0.82;;
56005;SDS011;41888;44.696;10.522;2022-07-10T13:10:05;2.17;;;0.90;;
56005;SDS011;41888;44.696;10.522;2022-07-10T13:12:32;1.35;;;0.77;;
56005;SDS011;41888;44.696;10.522;2022-07-10T13:15:00;2.67;;;0.60;;
56005;SDS011;41888;44.696;10.522;2022-07-10T13:17:27;2.03;;;0.60;;
56005;SDS011;41888;44.696;10.522;2022-07-10T13:19:54;2.20;;;0.82;;
56005;SDS011;41888;44.696;10.522;2022-07-10T13:22:21;2.55;;;0.90;;
56005;SDS011;41888;44.696;10.522;2022-07-10T13:24:47;1.08;;;0.70;;
56005;SDS011;41888;44.696;10.522;2022-07-10T13:27:14;1.38;;;0.70;;
56005;SDS011;41888;44.696;10.522;2022-07-10T13:29:40;1.88;;;0.65;;
56005;SDS011;41888;44.696;10.522;2022-07-10T13:32:06;2.40;;;1.10;;
56005;SDS011;41888;44.696;10.522;2022-07-10T13:34:33;4.03;;;1.52;;
56005;SDS011;41888;44.696;10.522;2022-07-10T13:37:00;6.35;;;3.95;;
56005;SDS011;41888;44.696;10.522;2022-07-10T13:39:26;1.65;;;0.90;;
56005;SDS011;41888;44.696;10.522;2022-07-10T13:41:52;1.58;;;0.80;;
56005;SDS011;41888;44.696;10.522;2022-07-10T13:44:19;1.83;;;0.80;;
56005;SDS011;41888;44.696;10.522;2022-07-10T13:46:45;1.30;;;0.70;;
56005;SDS011;41888;44.696;10.522;2022-07-10T13:49:11;1.77;;;0.80;;
56005;SDS011;41888;44.696;10.522;2022-07-10T13:51:38;2.05;;;0.80;;
56005;SDS011;41888;44.696;10.522;2022-07-10T13:54:04;1.60;;;0.70;;
56005;SDS011;41888;44.696;10.522;2022-07-10T13:56:30;0.80;;;0.52;;
56005;SDS011;41888;44.696;10.522;2022-07-10T13:58:57;6.13;;;1.58;;
56005;SDS011;41888;44.696;10.522;2022-07-10T14:01:23;1.80;;;0.65;;
56005;SDS011;41888;44.696;10.522;2022-07-10T14:03:49;2.53;;;0.77;;
56005;SDS011;41888;44.696;10.522;2022-07-10T14:06:17;3.03;;;1.00;;
56005;SDS011;41888;44.696;10.522;2022-07-10T14:08:43;4.28;;;1.27;;
56005;SDS011;41888;44.696;10.522;2022-07-10T14:11:09;4.55;;;1.20;;
56005;SDS011;41888;44.696;10.522;2022-07-10T14:13:36;3.65;;;2.28;;
56005;SDS011;41888;44.696;10.522;2022-07-10T14:16:02;2.47;;;1.42;;
56005;SDS011;41888;44.696;10.522;2022-07-10T14:18:29;3.47;;;0.80;;
56005;SDS011;41888;44.696;10.522;2022-07-10T14:21:05;3.55;;;0.98;;
56005;SDS011;41888;44.696;10.522;2022-07-10T14:23:36;2.10;;;0.70;;
56005;SDS011;41888;44.696;10.522;2022-07-10T14:26:04;3.17;;;1.00;;
56005;SDS011;41888;44.696;10.522;2022-07-10T14:28:31;1.00;;;0.73;;
56005;SDS011;41888;44.696;10.522;2022-07-10T14:30:59;2.50;;;0.75;;
56005;SDS011;41888;44.696;10.522;2022-07-10T14:33:28;1.65;;;0.73;;
56005;SDS011;41888;44.696;10.522;2022-07-10T14:35:55;2.38;;;0.77;;
56005;SDS011;41888;44.696;10.522;2022-07-10T14:38:22;1.88;;;0.90;;
56005;SDS011;41888;44.696;10.522;2022-07-10T14:40:48;1.40;;;0.60;;
56005;SDS011;41888;44.696;10.522;2022-07-10T14:43:17;1.65;;;0.60;;
56005;SDS011;41888;44.696;10.522;2022-07-10T14:45:44;1.27;;;0.80;;
56005;SDS011;41888;44.696;10.522;2022-07-10T14:48:11;1.92;;;0.90;;
56005;SDS011;41888;44.696;10.522;2022-07-10T14:50:37;4.28;;;0.82;;
56005;SDS011;41888;44.696;10.522;2022-07-10T14:53:05;1.42;;;0.70;;
56005;SDS011;41888;44.696;10.522;2022-07-10T14:55:32;1.45;;;0.70;;
56005;SDS011;41888;44.696;10.522;2022-07-10T14:57:58;1.17;;;0.70;;
56005;SDS011;41888;44.696;10.522;2022-07-10T15:00:24;1.73;;;0.80;;
56005;SDS011;41888;44.696;10.522;2022-07-10T15:02:51;1.52;;;0.98;;
56005;SDS011;41888;44.696;10.522;2022-07-10T15:05:17;1.52;;;0.88;;
56005;SDS011;41888;44.696;10.522;2022-07-10T15:07:44;3.40;;;0.80;;
56005;SDS011;41888;44.696;10.522;2022-07-10T15:10:10;3.08;;;0.90;;
56005;SDS011;41888;44.696;10.522;2022-07-10T15:12:37;1.70;;;0.80;;
56005;SDS011;41888;44.696;10.522;2022-07-10T15:15:06;1.05;;;0.60;;
56005;SDS011;41888;44.696;10.522;2022-07-10T15:17:34;1.75;;;0.90;;
56005;SDS011;41888;44.696;10.522;2022-07-10T15:20:01;3.25;;;1.00;;
56005;SDS011;41888;44.696;10.522;2022-07-10T15:22:28;1.45;;;0.70;;